KQA1023 DGAA-FACT
Flight info
| Callsign | KQA1023 |
|---|---|
| Flight time | N/A |
| Altitude | 35000 |
| Route | ACC UY149 GANBI DCT 05S004E 10S005E 15S006E 18S007E 23S010E DCT UVGOD UQ14 UVIKU Q35 ASPIK ASPIK1C |
| Aircraft | A21N/M-SDE2E3FGHIRWXY/LB1 |
Departure
| Time | 2026-05-04 00:29 |
|---|---|
| Airport | Kotoka International Airport (DGAA) |
Arrival
| Time | N/A |
|---|---|
| Airport | Cape Town International Airport (FACT) |
| Time | Latitude | Longitude | Altitude | Speed | Heading |
|---|---|---|---|---|---|
| 2026-05-04 00:07 | 5.60288 | -0.17146 | 217 ft | 0 kts | 292° |
| 2026-05-04 00:20 | 5.60285 | -0.17139 | 217 ft | 2 kts | 292° |
| 2026-05-04 00:20 | 5.60280 | -0.17125 | 217 ft | 2 kts | 292° |
| 2026-05-04 00:20 | 5.60274 | -0.17111 | 217 ft | 2 kts | 292° |
| 2026-05-04 00:20 | 5.60268 | -0.17097 | 216 ft | 2 kts | 292° |
| 2026-05-04 00:21 | 5.60263 | -0.17083 | 216 ft | 2 kts | 292° |
| 2026-05-04 00:21 | 5.60257 | -0.17069 | 216 ft | 2 kts | 292° |
| 2026-05-04 00:21 | 5.60249 | -0.17056 | 216 ft | 2 kts | 322° |
| 2026-05-04 00:21 | 5.60236 | -0.17049 | 215 ft | 2 kts | 354° |
| 2026-05-04 00:22 | 5.60224 | -0.17050 | 215 ft | 0 kts | 19° |
| 2026-05-04 00:22 | 5.60218 | -0.17053 | 214 ft | 1 kts | 22° |
| 2026-05-04 00:22 | 5.60217 | -0.17053 | 214 ft | 0 kts | 22° |
| 2026-05-04 00:23 | 5.60216 | -0.17053 | 214 ft | 0 kts | 22° |
| 2026-05-04 00:24 | 5.60215 | -0.17054 | 214 ft | 0 kts | 22° |
| 2026-05-04 00:24 | 5.60238 | -0.17045 | 215 ft | 7 kts | 22° |
| 2026-05-04 00:24 | 5.60280 | -0.17028 | 217 ft | 4 kts | 20° |
| 2026-05-04 00:24 | 5.60301 | -0.17020 | 218 ft | 1 kts | 20° |
| 2026-05-04 00:25 | 5.60336 | -0.17007 | 220 ft | 8 kts | 22° |
| 2026-05-04 00:25 | 5.60413 | -0.16973 | 224 ft | 15 kts | 22° |
| 2026-05-04 00:25 | 5.60528 | -0.16926 | 229 ft | 20 kts | 22° |
| 2026-05-04 00:25 | 5.60658 | -0.16873 | 233 ft | 18 kts | 22° |
| 2026-05-04 00:26 | 5.60775 | -0.16826 | 234 ft | 17 kts | 23° |
| 2026-05-04 00:26 | 5.60883 | -0.16781 | 235 ft | 16 kts | 22° |
| 2026-05-04 00:26 | 5.60986 | -0.16739 | 235 ft | 16 kts | 22° |
| 2026-05-04 00:26 | 5.61093 | -0.16695 | 233 ft | 17 kts | 22° |
| 2026-05-04 00:27 | 5.61208 | -0.16647 | 230 ft | 18 kts | 22° |
| 2026-05-04 00:27 | 5.61330 | -0.16597 | 227 ft | 19 kts | 22° |
| 2026-05-04 00:27 | 5.61460 | -0.16544 | 222 ft | 21 kts | 22° |
| 2026-05-04 00:27 | 5.61548 | -0.16495 | 218 ft | 13 kts | 51° |
| 2026-05-04 00:28 | 5.61550 | -0.16381 | 208 ft | 20 kts | 127° |
| 2026-05-04 00:28 | 5.61437 | -0.16348 | 211 ft | 15 kts | 192° |
| 2026-05-04 00:28 | 5.61326 | -0.16389 | 216 ft | 31 kts | 202° |
| 2026-05-04 00:28 | 5.60892 | -0.16568 | 221 ft | 101 kts | 202° |
| 2026-05-04 00:29 | 5.60031 | -0.16922 | 205 ft | 161 kts | 202° |
| 2026-05-04 00:29 | 5.58895 | -0.17397 | 517 ft | 182 kts | 203° |
| 2026-05-04 00:29 | 5.57698 | -0.17899 | 1136 ft | 188 kts | 203° |
| 2026-05-04 00:29 | 5.56478 | -0.18384 | 1716 ft | 192 kts | 193° |
| 2026-05-04 00:30 | 5.55105 | -0.18613 | 2042 ft | 205 kts | 184° |
| 2026-05-04 00:30 | 5.53652 | -0.18456 | 2260 ft | 218 kts | 156° |
| 2026-05-04 00:30 | 5.52392 | -0.17541 | 2496 ft | 232 kts | 130° |
| 2026-05-04 00:30 | 5.51496 | -0.16126 | 2756 ft | 246 kts | 123° |
| 2026-05-04 00:31 | 5.50433 | -0.14701 | 3042 ft | 257 kts | 133° |
| 2026-05-04 00:31 | 5.49151 | -0.13417 | 3510 ft | 261 kts | 138° |
| 2026-05-04 00:31 | 5.47746 | -0.12239 | 4055 ft | 263 kts | 141° |
| 2026-05-04 00:31 | 5.46280 | -0.11132 | 4585 ft | 264 kts | 143° |
| 2026-05-04 00:32 | 5.44772 | -0.10068 | 5091 ft | 266 kts | 143° |
| 2026-05-04 00:32 | 5.43215 | -0.09014 | 5591 ft | 268 kts | 144° |
| 2026-05-04 00:32 | 5.41644 | -0.07977 | 6076 ft | 270 kts | 144° |
| 2026-05-04 00:32 | 5.40071 | -0.06956 | 6562 ft | 272 kts | 144° |
| 2026-05-04 00:33 | 5.38471 | -0.05924 | 7029 ft | 274 kts | 144° |
| 2026-05-04 00:33 | 5.35209 | -0.03840 | 7957 ft | 277 kts | 143° |
| 2026-05-04 00:33 | 5.33569 | -0.02798 | 8418 ft | 278 kts | 143° |
| 2026-05-04 00:34 | 5.31920 | -0.01750 | 8858 ft | 280 kts | 142° |
| 2026-05-04 00:34 | 5.30274 | -0.00705 | 9298 ft | 282 kts | 142° |
| 2026-05-04 00:34 | 5.28604 | 0.00356 | 9736 ft | 283 kts | 142° |
| 2026-05-04 00:34 | 5.26926 | 0.01422 | 10137 ft | 285 kts | 142° |
| 2026-05-04 00:35 | 5.25206 | 0.02520 | 10346 ft | 295 kts | 142° |
| 2026-05-04 00:35 | 5.23436 | 0.03648 | 10539 ft | 306 kts | 142° |
| 2026-05-04 00:35 | 5.21619 | 0.04803 | 10726 ft | 316 kts | 143° |
| 2026-05-04 00:35 | 5.19698 | 0.06021 | 10919 ft | 326 kts | 143° |
| 2026-05-04 00:36 | 5.17752 | 0.07255 | 11101 ft | 336 kts | 143° |
| 2026-05-04 00:36 | 5.15729 | 0.08536 | 11282 ft | 346 kts | 143° |
| 2026-05-04 00:36 | 5.13661 | 0.09846 | 11537 ft | 352 kts | 143° |
| 2026-05-04 00:36 | 5.11578 | 0.11162 | 11921 ft | 354 kts | 143° |
| 2026-05-04 00:37 | 5.09482 | 0.12488 | 12304 ft | 356 kts | 143° |
| 2026-05-04 00:37 | 5.07376 | 0.13822 | 12666 ft | 359 kts | 143° |
| 2026-05-04 00:37 | 5.05250 | 0.15169 | 13019 ft | 361 kts | 143° |
| 2026-05-04 00:37 | 5.03110 | 0.16523 | 13383 ft | 363 kts | 143° |
| 2026-05-04 00:38 | 5.00960 | 0.17885 | 13734 ft | 366 kts | 143° |
| 2026-05-04 00:38 | 4.98799 | 0.19254 | 14068 ft | 368 kts | 143° |
| 2026-05-04 00:38 | 4.96590 | 0.20653 | 14405 ft | 370 kts | 143° |
| 2026-05-04 00:38 | 4.94412 | 0.22032 | 14752 ft | 372 kts | 143° |
| 2026-05-04 00:39 | 4.92220 | 0.23421 | 15079 ft | 373 kts | 143° |
| 2026-05-04 00:39 | 4.90003 | 0.24826 | 15405 ft | 375 kts | 143° |
| 2026-05-04 00:39 | 4.87773 | 0.26239 | 15707 ft | 377 kts | 143° |
| 2026-05-04 00:39 | 4.85564 | 0.27640 | 15994 ft | 379 kts | 143° |
| 2026-05-04 00:40 | 4.83317 | 0.29063 | 16278 ft | 381 kts | 143° |
| 2026-05-04 00:40 | 4.81038 | 0.30506 | 16559 ft | 383 kts | 143° |
| 2026-05-04 00:40 | 4.78767 | 0.31945 | 16837 ft | 385 kts | 143° |
| 2026-05-04 00:40 | 4.76474 | 0.33385 | 17096 ft | 388 kts | 144° |
| 2026-05-04 00:41 | 4.74135 | 0.34736 | 17356 ft | 391 kts | 146° |
| 2026-05-04 00:41 | 4.71752 | 0.36083 | 17630 ft | 393 kts | 146° |
| 2026-05-04 00:41 | 4.69352 | 0.37437 | 17900 ft | 394 kts | 146° |
| 2026-05-04 00:41 | 4.66948 | 0.38794 | 18178 ft | 395 kts | 146° |
| 2026-05-04 00:42 | 4.64533 | 0.40159 | 18440 ft | 397 kts | 147° |
| 2026-05-04 00:42 | 4.62126 | 0.41520 | 18692 ft | 398 kts | 147° |
| 2026-05-04 00:42 | 4.59696 | 0.42894 | 18949 ft | 399 kts | 147° |
| 2026-05-04 00:42 | 4.57265 | 0.44267 | 19206 ft | 400 kts | 147° |
| 2026-05-04 00:43 | 4.54796 | 0.45664 | 19456 ft | 402 kts | 147° |
| 2026-05-04 00:43 | 4.52378 | 0.47030 | 19693 ft | 403 kts | 147° |
| 2026-05-04 00:43 | 4.49909 | 0.48427 | 19930 ft | 404 kts | 148° |
| 2026-05-04 00:43 | 4.47446 | 0.49818 | 20159 ft | 405 kts | 148° |
| 2026-05-04 00:44 | 4.44986 | 0.51209 | 20389 ft | 406 kts | 148° |
| 2026-05-04 00:44 | 4.42492 | 0.52618 | 20613 ft | 407 kts | 148° |
| 2026-05-04 00:44 | 4.40023 | 0.54013 | 20820 ft | 409 kts | 148° |
| 2026-05-04 00:44 | 4.37536 | 0.55418 | 21035 ft | 410 kts | 148° |
| 2026-05-04 00:45 | 4.35020 | 0.56841 | 21246 ft | 411 kts | 148° |
| 2026-05-04 00:45 | 4.32515 | 0.58256 | 21443 ft | 412 kts | 148° |
| 2026-05-04 00:45 | 4.30032 | 0.59659 | 21635 ft | 413 kts | 148° |
| 2026-05-04 00:45 | 4.27495 | 0.61092 | 21836 ft | 414 kts | 149° |
| 2026-05-04 00:46 | 4.24967 | 0.62520 | 22019 ft | 415 kts | 149° |
| 2026-05-04 00:46 | 4.22447 | 0.63944 | 22194 ft | 416 kts | 149° |
| 2026-05-04 00:46 | 4.19920 | 0.65372 | 22382 ft | 417 kts | 149° |
| 2026-05-04 00:46 | 4.17371 | 0.66812 | 22557 ft | 418 kts | 149° |
| 2026-05-04 00:47 | 4.14829 | 0.68248 | 22741 ft | 419 kts | 149° |
| 2026-05-04 00:47 | 4.12299 | 0.69678 | 22913 ft | 420 kts | 149° |
| 2026-05-04 00:47 | 4.09708 | 0.71143 | 23083 ft | 421 kts | 149° |
| 2026-05-04 00:47 | 4.07174 | 0.72574 | 23241 ft | 423 kts | 149° |
| 2026-05-04 00:48 | 4.04595 | 0.74030 | 23402 ft | 424 kts | 149° |
| 2026-05-04 00:48 | 4.01973 | 0.75455 | 23561 ft | 425 kts | 151° |
| 2026-05-04 00:48 | 3.99293 | 0.76734 | 23714 ft | 427 kts | 154° |
| 2026-05-04 00:48 | 3.96531 | 0.77868 | 23870 ft | 429 kts | 158° |
| 2026-05-04 00:49 | 3.93693 | 0.78906 | 24027 ft | 430 kts | 159° |
| 2026-05-04 00:49 | 3.90862 | 0.79924 | 24178 ft | 431 kts | 159° |
| 2026-05-04 00:49 | 3.88041 | 0.80936 | 24324 ft | 432 kts | 159° |
| 2026-05-04 00:49 | 3.85172 | 0.81966 | 24468 ft | 434 kts | 159° |
| 2026-05-04 00:50 | 3.82327 | 0.82988 | 24611 ft | 435 kts | 159° |
| 2026-05-04 00:50 | 3.79439 | 0.84027 | 24749 ft | 436 kts | 159° |
| 2026-05-04 00:50 | 3.76596 | 0.85050 | 24885 ft | 437 kts | 159° |
| 2026-05-04 00:50 | 3.73707 | 0.86090 | 25024 ft | 438 kts | 159° |
| 2026-05-04 00:51 | 3.70847 | 0.87119 | 25166 ft | 439 kts | 159° |
| 2026-05-04 00:51 | 3.67962 | 0.88157 | 25316 ft | 439 kts | 159° |
| 2026-05-04 00:51 | 3.65057 | 0.89203 | 25458 ft | 440 kts | 159° |
| 2026-05-04 00:51 | 3.62151 | 0.90249 | 25588 ft | 441 kts | 159° |
| 2026-05-04 00:52 | 3.59244 | 0.91296 | 25722 ft | 442 kts | 159° |
| 2026-05-04 00:52 | 3.56342 | 0.92340 | 25857 ft | 443 kts | 159° |
| 2026-05-04 00:52 | 3.53437 | 0.93385 | 25995 ft | 444 kts | 159° |
| 2026-05-04 00:52 | 3.50500 | 0.94443 | 26119 ft | 445 kts | 159° |
| 2026-05-04 00:53 | 3.47563 | 0.95500 | 26238 ft | 446 kts | 159° |
| 2026-05-04 00:53 | 3.44667 | 0.96542 | 26367 ft | 447 kts | 159° |
| 2026-05-04 00:53 | 3.41708 | 0.97608 | 26494 ft | 447 kts | 159° |
| 2026-05-04 00:53 | 3.38763 | 0.98667 | 26609 ft | 449 kts | 159° |
| 2026-05-04 00:54 | 3.35810 | 0.99729 | 26729 ft | 449 kts | 159° |
| 2026-05-04 00:54 | 3.32864 | 1.00788 | 26851 ft | 450 kts | 159° |
| 2026-05-04 00:54 | 3.29873 | 1.01864 | 26970 ft | 451 kts | 159° |
| 2026-05-04 00:54 | 3.26926 | 1.02924 | 27086 ft | 452 kts | 159° |
| 2026-05-04 00:55 | 3.23931 | 1.04002 | 27211 ft | 452 kts | 159° |
| 2026-05-04 00:55 | 3.20962 | 1.05070 | 27321 ft | 453 kts | 159° |
| 2026-05-04 00:55 | 3.17982 | 1.06141 | 27437 ft | 454 kts | 159° |
| 2026-05-04 00:55 | 3.14990 | 1.07218 | 27573 ft | 454 kts | 159° |
| 2026-05-04 00:56 | 3.11993 | 1.08296 | 27671 ft | 455 kts | 159° |
| 2026-05-04 00:56 | 3.09033 | 1.09361 | 27758 ft | 457 kts | 159° |
| 2026-05-04 00:56 | 3.05990 | 1.10455 | 27869 ft | 457 kts | 159° |
| 2026-05-04 00:56 | 3.03008 | 1.11526 | 27961 ft | 458 kts | 159° |
| 2026-05-04 00:57 | 2.99994 | 1.12610 | 28067 ft | 459 kts | 159° |
| 2026-05-04 00:57 | 2.93921 | 1.14791 | 28255 ft | 461 kts | 159° |
| 2026-05-04 00:58 | 2.87847 | 1.16975 | 28444 ft | 462 kts | 159° |
| 2026-05-04 00:58 | 2.84838 | 1.18057 | 28550 ft | 463 kts | 159° |
| 2026-05-04 00:58 | 2.81782 | 1.19155 | 28664 ft | 463 kts | 159° |
| 2026-05-04 00:58 | 2.78714 | 1.20258 | 28809 ft | 463 kts | 159° |
| 2026-05-04 00:59 | 2.75708 | 1.21338 | 28951 ft | 462 kts | 159° |
| 2026-05-04 00:59 | 2.72670 | 1.22430 | 29103 ft | 461 kts | 159° |
| 2026-05-04 00:59 | 2.69639 | 1.23518 | 29257 ft | 461 kts | 159° |
| 2026-05-04 00:59 | 2.66615 | 1.24605 | 29399 ft | 460 kts | 159° |
| 2026-05-04 01:00 | 2.63573 | 1.25697 | 29528 ft | 460 kts | 158° |
| 2026-05-04 01:00 | 2.60565 | 1.26777 | 29659 ft | 459 kts | 158° |
| 2026-05-04 01:00 | 2.57519 | 1.27872 | 29775 ft | 459 kts | 158° |
| 2026-05-04 01:00 | 2.54489 | 1.28960 | 29893 ft | 459 kts | 158° |
| 2026-05-04 01:01 | 2.51507 | 1.30032 | 30001 ft | 459 kts | 158° |
| 2026-05-04 01:01 | 2.48488 | 1.31116 | 30115 ft | 459 kts | 158° |
| 2026-05-04 01:01 | 2.45445 | 1.32211 | 30225 ft | 459 kts | 158° |
| 2026-05-04 01:01 | 2.42422 | 1.33295 | 30344 ft | 459 kts | 158° |
| 2026-05-04 01:02 | 2.39405 | 1.34380 | 30455 ft | 459 kts | 158° |
| 2026-05-04 01:02 | 2.36415 | 1.35452 | 30564 ft | 459 kts | 158° |
| 2026-05-04 01:02 | 2.33376 | 1.36543 | 30682 ft | 458 kts | 158° |
| 2026-05-04 01:02 | 2.30379 | 1.37620 | 30793 ft | 458 kts | 158° |
| 2026-05-04 01:03 | 2.27376 | 1.38699 | 30892 ft | 458 kts | 158° |
| 2026-05-04 01:03 | 2.24325 | 1.39793 | 30994 ft | 458 kts | 158° |
| 2026-05-04 01:03 | 2.21347 | 1.40863 | 31098 ft | 458 kts | 158° |
| 2026-05-04 01:04 | 2.15329 | 1.43025 | 31301 ft | 458 kts | 158° |
| 2026-05-04 01:04 | 2.09305 | 1.45188 | 31494 ft | 458 kts | 158° |
| 2026-05-04 01:04 | 2.06285 | 1.46272 | 31600 ft | 458 kts | 158° |
| 2026-05-04 01:05 | 2.03272 | 1.47353 | 31700 ft | 457 kts | 158° |
| 2026-05-04 01:05 | 1.97234 | 1.49521 | 31871 ft | 458 kts | 158° |
| 2026-05-04 01:06 | 1.91232 | 1.51676 | 32064 ft | 457 kts | 158° |
| 2026-05-04 01:06 | 1.88224 | 1.52755 | 32178 ft | 456 kts | 158° |
| 2026-05-04 01:06 | 1.85256 | 1.53820 | 32273 ft | 456 kts | 158° |
| 2026-05-04 01:07 | 1.79245 | 1.55979 | 32467 ft | 455 kts | 158° |
| 2026-05-04 01:07 | 1.73258 | 1.58127 | 32654 ft | 454 kts | 158° |
| 2026-05-04 01:08 | 1.67271 | 1.60275 | 32872 ft | 453 kts | 158° |
| 2026-05-04 01:08 | 1.64294 | 1.61343 | 32993 ft | 452 kts | 158° |
| 2026-05-04 01:08 | 1.61343 | 1.62402 | 33116 ft | 452 kts | 158° |
| 2026-05-04 01:08 | 1.58374 | 1.63467 | 33220 ft | 451 kts | 158° |
| 2026-05-04 01:09 | 1.55406 | 1.64533 | 33333 ft | 450 kts | 158° |
| 2026-05-04 01:09 | 1.52441 | 1.65597 | 33446 ft | 450 kts | 159° |
| 2026-05-04 01:09 | 1.49495 | 1.66654 | 33552 ft | 449 kts | 159° |
| 2026-05-04 01:09 | 1.46521 | 1.67720 | 33661 ft | 449 kts | 159° |
| 2026-05-04 01:10 | 1.43563 | 1.68781 | 33775 ft | 448 kts | 159° |
| 2026-05-04 01:10 | 1.37659 | 1.70898 | 33870 ft | 450 kts | 159° |
| 2026-05-04 01:11 | 1.31717 | 1.73031 | 33982 ft | 451 kts | 159° |
| 2026-05-04 01:11 | 1.25796 | 1.75155 | 34102 ft | 451 kts | 159° |
| 2026-05-04 01:12 | 1.19872 | 1.77279 | 34236 ft | 451 kts | 159° |
| 2026-05-04 01:12 | 1.13935 | 1.79408 | 34350 ft | 452 kts | 159° |
| 2026-05-04 01:13 | 1.07972 | 1.81546 | 34444 ft | 452 kts | 159° |
| 2026-05-04 01:13 | 1.02038 | 1.83674 | 34539 ft | 452 kts | 159° |
| 2026-05-04 01:14 | 0.96057 | 1.85818 | 34593 ft | 453 kts | 159° |
| 2026-05-04 01:14 | 0.90088 | 1.87957 | 34627 ft | 454 kts | 159° |
| 2026-05-04 01:15 | 0.84110 | 1.90102 | 34699 ft | 454 kts | 159° |
| 2026-05-04 01:15 | 0.78142 | 1.92243 | 34763 ft | 454 kts | 160° |
| 2026-05-04 01:16 | 0.72140 | 1.94394 | 34804 ft | 455 kts | 160° |
| 2026-05-04 01:16 | 0.66148 | 1.96542 | 34836 ft | 455 kts | 160° |
| 2026-05-04 01:17 | 0.60172 | 1.98684 | 34877 ft | 455 kts | 159° |
| 2026-05-04 01:17 | 0.54182 | 2.00832 | 34900 ft | 456 kts | 160° |
| 2026-05-04 01:18 | 0.48184 | 2.02982 | 34899 ft | 457 kts | 159° |
| 2026-05-04 01:18 | 0.42162 | 2.05141 | 34915 ft | 458 kts | 160° |
| 2026-05-04 01:19 | 0.36143 | 2.07300 | 34917 ft | 458 kts | 160° |
| 2026-05-04 01:19 | 0.30102 | 2.09465 | 34919 ft | 457 kts | 160° |
| 2026-05-04 01:20 | 0.24080 | 2.11623 | 34919 ft | 457 kts | 160° |
| 2026-05-04 01:20 | 0.18055 | 2.13782 | 34918 ft | 458 kts | 160° |
| 2026-05-04 01:21 | 0.12065 | 2.15929 | 34924 ft | 458 kts | 159° |
| 2026-05-04 01:21 | 0.05999 | 2.18103 | 34931 ft | 458 kts | 159° |
| 2026-05-04 01:22 | 0.00004 | 2.20255 | 34935 ft | 458 kts | 160° |
| 2026-05-04 01:22 | -0.06041 | 2.22422 | 34935 ft | 457 kts | 160° |
| 2026-05-04 01:23 | -0.12158 | 2.24614 | 34935 ft | 457 kts | 160° |
| 2026-05-04 01:23 | -0.18080 | 2.26736 | 34934 ft | 457 kts | 160° |
| 2026-05-04 01:24 | -0.24083 | 2.28888 | 34935 ft | 457 kts | 160° |
| 2026-05-04 01:24 | -0.30117 | 2.31051 | 34934 ft | 457 kts | 160° |
| 2026-05-04 01:25 | -0.36107 | 2.33199 | 34932 ft | 457 kts | 160° |
| 2026-05-04 01:25 | -0.42143 | 2.35363 | 34929 ft | 456 kts | 160° |
| 2026-05-04 01:26 | -0.48150 | 2.37517 | 34925 ft | 455 kts | 160° |
| 2026-05-04 01:26 | -0.54139 | 2.39664 | 34924 ft | 455 kts | 160° |
| 2026-05-04 01:27 | -0.60093 | 2.41798 | 34918 ft | 455 kts | 160° |
| 2026-05-04 01:27 | -0.66116 | 2.43958 | 34914 ft | 455 kts | 160° |
| 2026-05-04 01:28 | -0.72086 | 2.46098 | 34913 ft | 455 kts | 160° |
| 2026-05-04 01:28 | -0.78091 | 2.48251 | 34914 ft | 455 kts | 160° |
| 2026-05-04 01:29 | -0.84047 | 2.50387 | 34913 ft | 455 kts | 160° |
| 2026-05-04 01:29 | -0.90055 | 2.52541 | 34914 ft | 455 kts | 160° |
| 2026-05-04 01:30 | -0.96009 | 2.54676 | 34912 ft | 455 kts | 160° |
| 2026-05-04 01:30 | -1.01994 | 2.56822 | 34913 ft | 454 kts | 160° |
| 2026-05-04 01:31 | -1.08012 | 2.58981 | 34914 ft | 454 kts | 160° |
| 2026-05-04 01:31 | -1.12983 | 2.60763 | 34914 ft | 454 kts | 160° |
| 2026-05-04 01:32 | -1.19938 | 2.63257 | 34914 ft | 454 kts | 160° |
| 2026-05-04 01:32 | -1.25904 | 2.65397 | 34916 ft | 454 kts | 160° |
| 2026-05-04 01:33 | -1.31883 | 2.67541 | 34914 ft | 453 kts | 160° |
| 2026-05-04 01:33 | -1.37841 | 2.69678 | 34914 ft | 453 kts | 160° |
| 2026-05-04 01:34 | -1.43820 | 2.71823 | 34915 ft | 452 kts | 160° |
| 2026-05-04 01:34 | -1.49765 | 2.73957 | 34916 ft | 452 kts | 160° |
| 2026-05-04 01:35 | -1.55712 | 2.76090 | 34914 ft | 453 kts | 160° |
| 2026-05-04 01:35 | -1.61690 | 2.78234 | 34915 ft | 452 kts | 160° |
| 2026-05-04 01:36 | -1.67648 | 2.80371 | 34914 ft | 452 kts | 160° |
| 2026-05-04 01:36 | -1.73567 | 2.82495 | 34915 ft | 453 kts | 160° |
| 2026-05-04 01:37 | -1.79518 | 2.84632 | 34914 ft | 452 kts | 160° |
| 2026-05-04 01:37 | -1.85491 | 2.86776 | 34916 ft | 452 kts | 160° |
| 2026-05-04 01:38 | -1.91441 | 2.88910 | 34915 ft | 452 kts | 160° |
| 2026-05-04 01:38 | -1.97353 | 2.91032 | 34915 ft | 451 kts | 160° |
| 2026-05-04 01:39 | -2.03308 | 2.93169 | 34915 ft | 450 kts | 160° |
| 2026-05-04 01:39 | -2.09210 | 2.95289 | 34914 ft | 450 kts | 160° |
| 2026-05-04 01:40 | -2.15119 | 2.97411 | 34915 ft | 450 kts | 160° |
| 2026-05-04 01:40 | -2.21077 | 2.99550 | 34915 ft | 451 kts | 160° |
| 2026-05-04 01:41 | -2.26976 | 3.01667 | 34915 ft | 450 kts | 160° |
| 2026-05-04 01:41 | -2.32882 | 3.03788 | 34914 ft | 449 kts | 160° |
| 2026-05-04 01:42 | -2.38811 | 3.05917 | 34914 ft | 449 kts | 160° |
| 2026-05-04 01:42 | -2.44719 | 3.08039 | 34916 ft | 449 kts | 160° |
| 2026-05-04 01:43 | -2.50625 | 3.10161 | 34924 ft | 449 kts | 160° |
| 2026-05-04 01:43 | -2.56545 | 3.12287 | 34932 ft | 449 kts | 160° |
| 2026-05-04 01:44 | -2.62439 | 3.14405 | 34929 ft | 449 kts | 160° |
| 2026-05-04 01:44 | -2.68362 | 3.16533 | 34921 ft | 449 kts | 160° |
| 2026-05-04 01:45 | -2.74265 | 3.18654 | 34920 ft | 449 kts | 160° |
| 2026-05-04 01:45 | -2.83158 | 3.21850 | 34917 ft | 448 kts | 160° |
| 2026-05-04 01:46 | -2.89037 | 3.23963 | 34916 ft | 448 kts | 160° |
| 2026-05-04 01:46 | -2.94948 | 3.26088 | 34916 ft | 448 kts | 161° |
| 2026-05-04 01:47 | -3.00851 | 3.28211 | 34914 ft | 448 kts | 161° |
| 2026-05-04 01:47 | -3.06766 | 3.30336 | 34914 ft | 448 kts | 161° |
| 2026-05-04 01:48 | -3.12663 | 3.32457 | 34915 ft | 448 kts | 160° |
| 2026-05-04 01:48 | -3.18561 | 3.34577 | 34916 ft | 448 kts | 160° |
| 2026-05-04 01:49 | -3.24439 | 3.36692 | 34916 ft | 448 kts | 160° |
| 2026-05-04 01:49 | -3.30323 | 3.38809 | 34914 ft | 447 kts | 160° |
| 2026-05-04 01:50 | -3.36239 | 3.40938 | 34915 ft | 447 kts | 160° |
| 2026-05-04 01:50 | -3.40135 | 3.42340 | 34916 ft | 447 kts | 160° |